sensor_id;sensor_type;location;lat;lon;timestamp;temperature;humidity
8563;DHT22;16392;52.508;13.468;2022-11-15T00:00:58;5.30;99.90
8563;DHT22;16392;52.508;13.468;2022-11-15T00:03:26;5.30;99.90
8563;DHT22;16392;52.508;13.468;2022-11-15T00:05:53;5.30;99.90
8563;DHT22;16392;52.508;13.468;2022-11-15T00:08:20;5.30;99.90
8563;DHT22;16392;52.508;13.468;2022-11-15T00:10:54;5.30;99.90
8563;DHT22;16392;52.508;13.468;2022-11-15T00:13:25;5.30;99.90
8563;DHT22;16392;52.508;13.468;2022-11-15T00:15:52;5.20;99.90
8563;DHT22;16392;52.508;13.468;2022-11-15T00:18:20;5.10;99.90
8563;DHT22;16392;52.508;13.468;2022-11-15T00:20:46;5.10;99.90
8563;DHT22;16392;52.508;13.468;2022-11-15T00:23:13;5.20;99.90
8563;DHT22;16392;52.508;13.468;2022-11-15T00:25:40;5.10;99.90
8563;DHT22;16392;52.508;13.468;2022-11-15T00:28:06;5.20;99.90
8563;DHT22;16392;52.508;13.468;2022-11-15T00:30:34;5.20;99.90
8563;DHT22;16392;52.508;13.468;2022-11-15T00:33:02;5.20;99.90
8563;DHT22;16392;52.508;13.468;2022-11-15T00:35:31;5.20;99.90
8563;DHT22;16392;52.508;13.468;2022-11-15T00:37:57;5.10;99.90
8563;DHT22;16392;52.508;13.468;2022-11-15T00:40:24;5.10;99.90
8563;DHT22;16392;52.508;13.468;2022-11-15T00:42:51;5.10;99.90
8563;DHT22;16392;52.508;13.468;2022-11-15T00:45:18;5.10;99.90
8563;DHT22;16392;52.508;13.468;2022-11-15T00:47:46;5.00;99.90
8563;DHT22;16392;52.508;13.468;2022-11-15T00:50:13;5.10;99.90
8563;DHT22;16392;52.508;13.468;2022-11-15T00:52:40;5.00;99.90
8563;DHT22;16392;52.508;13.468;2022-11-15T00:55:08;5.00;99.90
8563;DHT22;16392;52.508;13.468;2022-11-15T00:57:36;5.00;99.90
8563;DHT22;16392;52.508;13.468;2022-11-15T01:00:03;4.90;99.90
8563;DHT22;16392;52.508;13.468;2022-11-15T01:02:36;5.00;99.90
8563;DHT22;16392;52.508;13.468;2022-11-15T01:05:05;4.90;99.90
8563;DHT22;16392;52.508;13.468;2022-11-15T01:07:32;5.00;99.90
8563;DHT22;16392;52.508;13.468;2022-11-15T01:09:58;4.90;99.90
8563;DHT22;16392;52.508;13.468;2022-11-15T01:12:26;5.00;99.90
8563;DHT22;16392;52.508;13.468;2022-11-15T01:14:52;5.00;99.90
8563;DHT22;16392;52.508;13.468;2022-11-15T01:17:19;4.90;99.90
8563;DHT22;16392;52.508;13.468;2022-11-15T01:19:46;4.90;99.90
8563;DHT22;16392;52.508;13.468;2022-11-15T01:22:14;5.00;99.90
8563;DHT22;16392;52.508;13.468;2022-11-15T01:24:41;5.00;99.90
8563;DHT22;16392;52.508;13.468;2022-11-15T01:27:08;5.00;99.90
8563;DHT22;16392;52.508;13.468;2022-11-15T01:29:35;4.90;99.90
8563;DHT22;16392;52.508;13.468;2022-11-15T01:32:02;4.90;99.90
8563;DHT22;16392;52.508;13.468;2022-11-15T01:34:29;4.90;99.90
8563;DHT22;16392;52.508;13.468;2022-11-15T01:36:56;4.90;99.90
8563;DHT22;16392;52.508;13.468;2022-11-15T01:39:25;4.80;99.90
8563;DHT22;16392;52.508;13.468;2022-11-15T01:41:52;4.80;99.90
8563;DHT22;16392;52.508;13.468;2022-11-15T01:44:41;4.80;99.90
8563;DHT22;16392;52.508;13.468;2022-11-15T01:47:10;4.80;99.90
8563;DHT22;16392;52.508;13.468;2022-11-15T01:49:42;4.80;99.90
8563;DHT22;16392;52.508;13.468;2022-11-15T01:52:13;4.80;99.90
8563;DHT22;16392;52.508;13.468;2022-11-15T01:54:44;4.80;99.90
8563;DHT22;16392;52.508;13.468;2022-11-15T01:57:12;4.80;99.90
8563;DHT22;16392;52.508;13.468;2022-11-15T01:59:41;4.80;99.90
8563;DHT22;16392;52.508;13.468;2022-11-15T02:02:08;4.80;99.90
8563;DHT22;16392;52.508;13.468;2022-11-15T02:04:39;4.80;99.90
8563;DHT22;16392;52.508;13.468;2022-11-15T02:07:08;4.80;99.90
8563;DHT22;16392;52.508;13.468;2022-11-15T02:09:36;4.80;99.90
8563;DHT22;16392;52.508;13.468;2022-11-15T02:12:07;4.80;99.90
8563;DHT22;16392;52.508;13.468;2022-11-15T02:14:35;4.70;99.90
8563;DHT22;16392;52.508;13.468;2022-11-15T02:17:18;4.70;99.90
8563;DHT22;16392;52.508;13.468;2022-11-15T02:20:20;4.70;99.90
8563;DHT22;16392;52.508;13.468;2022-11-15T02:23:11;4.70;99.90
8563;DHT22;16392;52.508;13.468;2022-11-15T02:25:47;4.70;99.90
8563;DHT22;16392;52.508;13.468;2022-11-15T02:28:45;4.60;99.90
8563;DHT22;16392;52.508;13.468;2022-11-15T02:31:22;4.80;99.90
8563;DHT22;16392;52.508;13.468;2022-11-15T02:34:00;4.80;99.90
8563;DHT22;16392;52.508;13.468;2022-11-15T02:36:36;4.80;99.90
8563;DHT22;16392;52.508;13.468;2022-11-15T02:39:10;4.80;99.90
8563;DHT22;16392;52.508;13.468;2022-11-15T02:41:46;4.70;99.90
8563;DHT22;16392;52.508;13.468;2022-11-15T02:44:17;4.70;99.90
8563;DHT22;16392;52.508;13.468;2022-11-15T02:46:48;4.70;99.90
8563;DHT22;16392;52.508;13.468;2022-11-15T02:49:34;4.80;99.90
8563;DHT22;16392;52.508;13.468;2022-11-15T02:52:01;4.80;99.90
8563;DHT22;16392;52.508;13.468;2022-11-15T02:54:29;4.70;99.90
8563;DHT22;16392;52.508;13.468;2022-11-15T02:57:01;4.70;99.90
8563;DHT22;16392;52.508;13.468;2022-11-15T02:59:46;4.70;99.90
8563;DHT22;16392;52.508;13.468;2022-11-15T03:02:30;4.60;99.90
8563;DHT22;16392;52.508;13.468;2022-11-15T03:05:07;4.60;99.90
8563;DHT22;16392;52.508;13.468;2022-11-15T03:07:42;4.50;99.90
8563;DHT22;16392;52.508;13.468;2022-11-15T03:10:15;4.50;99.90
8563;DHT22;16392;52.508;13.468;2022-11-15T03:12:48;4.50;99.90
8563;DHT22;16392;52.508;13.468;2022-11-15T03:15:18;4.40;99.90
8563;DHT22;16392;52.508;13.468;2022-11-15T03:17:53;4.40;99.90
8563;DHT22;16392;52.508;13.468;2022-11-15T03:20:23;4.40;99.90
8563;DHT22;16392;52.508;13.468;2022-11-15T03:22:54;4.40;99.90
8563;DHT22;16392;52.508;13.468;2022-11-15T03:25:24;4.30;99.90
8563;DHT22;16392;52.508;13.468;2022-11-15T03:27:54;4.30;99.90
8563;DHT22;16392;52.508;13.468;2022-11-15T03:30:22;4.30;99.90
8563;DHT22;16392;52.508;13.468;2022-11-15T03:32:52;4.30;99.90
8563;DHT22;16392;52.508;13.468;2022-11-15T03:35:22;4.40;99.90
8563;DHT22;16392;52.508;13.468;2022-11-15T03:37:52;4.40;99.90
8563;DHT22;16392;52.508;13.468;2022-11-15T03:40:24;4.30;99.90
8563;DHT22;16392;52.508;13.468;2022-11-15T03:43:00;4.30;99.90
8563;DHT22;16392;52.508;13.468;2022-11-15T03:45:31;4.20;99.90
8563;DHT22;16392;52.508;13.468;2022-11-15T03:48:02;4.20;99.90
8563;DHT22;16392;52.508;13.468;2022-11-15T03:50:31;4.20;99.90
8563;DHT22;16392;52.508;13.468;2022-11-15T03:52:58;4.20;99.90
8563;DHT22;16392;52.508;13.468;2022-11-15T03:55:25;4.30;99.90
8563;DHT22;16392;52.508;13.468;2022-11-15T03:57:54;4.30;99.90
8563;DHT22;16392;52.508;13.468;2022-11-15T04:00:22;4.20;99.90
8563;DHT22;16392;52.508;13.468;2022-11-15T04:02:49;4.30;99.90
8563;DHT22;16392;52.508;13.468;2022-11-15T04:05:17;4.30;99.90
8563;DHT22;16392;52.508;13.468;2022-11-15T04:07:44;4.30;99.90
8563;DHT22;16392;52.508;13.468;2022-11-15T04:10:12;4.30;99.90
8563;DHT22;16392;52.508;13.468;2022-11-15T04:12:41;4.30;99.90
8563;DHT22;16392;52.508;13.468;2022-11-15T04:15:11;4.30;99.90
8563;DHT22;16392;52.508;13.468;2022-11-15T04:17:40;4.30;99.90
8563;DHT22;16392;52.508;13.468;2022-11-15T04:20:10;4.30;99.90
8563;DHT22;16392;52.508;13.468;2022-11-15T04:22:57;4.30;99.90
8563;DHT22;16392;52.508;13.468;2022-11-15T04:25:42;4.30;99.90
8563;DHT22;16392;52.508;13.468;2022-11-15T04:28:09;4.30;99.90
8563;DHT22;16392;52.508;13.468;2022-11-15T04:30:37;4.30;99.90
8563;DHT22;16392;52.508;13.468;2022-11-15T04:33:04;4.30;99.90
8563;DHT22;16392;52.508;13.468;2022-11-15T04:35:31;4.30;99.90
8563;DHT22;16392;52.508;13.468;2022-11-15T04:37:59;4.20;99.90
8563;DHT22;16392;52.508;13.468;2022-11-15T04:40:26;4.30;99.90
8563;DHT22;16392;52.508;13.468;2022-11-15T04:42:53;4.30;99.90
8563;DHT22;16392;52.508;13.468;2022-11-15T04:45:19;4.30;99.90
8563;DHT22;16392;52.508;13.468;2022-11-15T04:47:47;4.30;99.90
8563;DHT22;16392;52.508;13.468;2022-11-15T04:50:15;4.30;99.90
8563;DHT22;16392;52.508;13.468;2022-11-15T04:52:43;4.20;99.90
8563;DHT22;16392;52.508;13.468;2022-11-15T04:55:11;4.20;99.90
8563;DHT22;16392;52.508;13.468;2022-11-15T04:57:38;4.20;99.90
8563;DHT22;16392;52.508;13.468;2022-11-15T05:00:07;4.20;99.90
8563;DHT22;16392;52.508;13.468;2022-11-15T05:02:33;4.20;99.90
8563;DHT22;16392;52.508;13.468;2022-11-15T05:05:18;4.20;99.90
8563;DHT22;16392;52.508;13.468;2022-11-15T05:07:45;4.30;99.90
8563;DHT22;16392;52.508;13.468;2022-11-15T05:10:13;4.30;99.90
8563;DHT22;16392;52.508;13.468;2022-11-15T05:12:42;4.20;99.90
8563;DHT22;16392;52.508;13.468;2022-11-15T05:15:09;4.30;99.90
8563;DHT22;16392;52.508;13.468;2022-11-15T05:17:36;4.20;99.90
8563;DHT22;16392;52.508;13.468;2022-11-15T05:20:02;4.20;99.90
8563;DHT22;16392;52.508;13.468;2022-11-15T05:22:29;4.20;99.90
8563;DHT22;16392;52.508;13.468;2022-11-15T05:24:56;4.10;99.90
8563;DHT22;16392;52.508;13.468;2022-11-15T05:27:24;4.10;99.90
8563;DHT22;16392;52.508;13.468;2022-11-15T05:29:50;4.10;99.90
8563;DHT22;16392;52.508;13.468;2022-11-15T05:32:17;4.10;99.90
8563;DHT22;16392;52.508;13.468;2022-11-15T05:34:45;4.20;99.90
8563;DHT22;16392;52.508;13.468;2022-11-15T05:37:12;4.20;99.90
8563;DHT22;16392;52.508;13.468;2022-11-15T05:39:39;4.20;99.90
8563;DHT22;16392;52.508;13.468;2022-11-15T05:42:08;4.10;99.90
8563;DHT22;16392;52.508;13.468;2022-11-15T05:44:39;4.20;99.90
8563;DHT22;16392;52.508;13.468;2022-11-15T05:47:10;4.30;99.90
8563;DHT22;16392;52.508;13.468;2022-11-15T05:49:40;4.30;99.90
8563;DHT22;16392;52.508;13.468;2022-11-15T05:52:10;4.30;99.90
8563;DHT22;16392;52.508;13.468;2022-11-15T05:54:38;4.30;99.90
8563;DHT22;16392;52.508;13.468;2022-11-15T05:57:05;4.30;99.90
8563;DHT22;16392;52.508;13.468;2022-11-15T05:59:33;4.20;99.90
8563;DHT22;16392;52.508;13.468;2022-11-15T06:02:02;4.20;99.90
8563;DHT22;16392;52.508;13.468;2022-11-15T06:04:30;4.20;99.90
8563;DHT22;16392;52.508;13.468;2022-11-15T06:06:58;4.30;99.90
8563;DHT22;16392;52.508;13.468;2022-11-15T06:09:24;4.30;99.90
8563;DHT22;16392;52.508;13.468;2022-11-15T06:11:51;4.40;99.90
8563;DHT22;16392;52.508;13.468;2022-11-15T06:14:18;4.40;99.90
8563;DHT22;16392;52.508;13.468;2022-11-15T06:16:44;4.50;99.90
8563;DHT22;16392;52.508;13.468;2022-11-15T06:19:12;4.50;99.90
8563;DHT22;16392;52.508;13.468;2022-11-15T06:21:39;4.50;99.90
8563;DHT22;16392;52.508;13.468;2022-11-15T06:24:06;4.50;99.90
8563;DHT22;16392;52.508;13.468;2022-11-15T06:26:40;4.60;99.90
8563;DHT22;16392;52.508;13.468;2022-11-15T06:29:07;4.60;99.90
8563;DHT22;16392;52.508;13.468;2022-11-15T06:31:34;4.60;99.90
8563;DHT22;16392;52.508;13.468;2022-11-15T06:34:01;4.60;99.90
8563;DHT22;16392;52.508;13.468;2022-11-15T06:36:29;4.50;99.90
8563;DHT22;16392;52.508;13.468;2022-11-15T06:38:56;4.50;99.90
8563;DHT22;16392;52.508;13.468;2022-11-15T06:41:22;4.50;99.90
8563;DHT22;16392;52.508;13.468;2022-11-15T06:43:49;4.60;99.90
8563;DHT22;16392;52.508;13.468;2022-11-15T06:46:16;4.70;99.90
8563;DHT22;16392;52.508;13.468;2022-11-15T06:48:42;4.70;99.90
8563;DHT22;16392;52.508;13.468;2022-11-15T06:51:09;4.70;99.90
8563;DHT22;16392;52.508;13.468;2022-11-15T06:53:37;4.80;99.90
8563;DHT22;16392;52.508;13.468;2022-11-15T06:56:05;4.80;99.90
8563;DHT22;16392;52.508;13.468;2022-11-15T06:58:32;4.90;99.90
8563;DHT22;16392;52.508;13.468;2022-11-15T07:00:59;4.90;99.90
8563;DHT22;16392;52.508;13.468;2022-11-15T07:03:26;5.10;99.90
8563;DHT22;16392;52.508;13.468;2022-11-15T07:05:54;5.20;99.90
8563;DHT22;16392;52.508;13.468;2022-11-15T07:08:22;5.30;99.90
8563;DHT22;16392;52.508;13.468;2022-11-15T07:10:51;5.20;99.90
8563;DHT22;16392;52.508;13.468;2022-11-15T07:13:18;5.20;99.90
8563;DHT22;16392;52.508;13.468;2022-11-15T07:15:45;5.20;99.90
8563;DHT22;16392;52.508;13.468;2022-11-15T07:18:11;5.20;99.90
8563;DHT22;16392;52.508;13.468;2022-11-15T07:20:38;5.30;99.90
8563;DHT22;16392;52.508;13.468;2022-11-15T07:23:05;5.40;99.90
8563;DHT22;16392;52.508;13.468;2022-11-15T07:25:33;5.50;99.90
8563;DHT22;16392;52.508;13.468;2022-11-15T07:28:01;5.50;99.90
8563;DHT22;16392;52.508;13.468;2022-11-15T07:30:28;5.50;99.90
8563;DHT22;16392;52.508;13.468;2022-11-15T07:32:55;5.60;99.90
8563;DHT22;16392;52.508;13.468;2022-11-15T07:35:24;5.80;99.90
8563;DHT22;16392;52.508;13.468;2022-11-15T07:37:55;6.30;99.90
8563;DHT22;16392;52.508;13.468;2022-11-15T07:40:22;6.70;99.90
8563;DHT22;16392;52.508;13.468;2022-11-15T07:42:48;7.00;99.90
8563;DHT22;16392;52.508;13.468;2022-11-15T07:45:24;7.40;99.90
8563;DHT22;16392;52.508;13.468;2022-11-15T07:47:52;7.80;99.90
8563;DHT22;16392;52.508;13.468;2022-11-15T07:50:19;8.00;99.90
8563;DHT22;16392;52.508;13.468;2022-11-15T07:52:46;8.40;99.90
8563;DHT22;16392;52.508;13.468;2022-11-15T07:55:14;8.50;99.90
8563;DHT22;16392;52.508;13.468;2022-11-15T07:57:40;8.70;99.90
8563;DHT22;16392;52.508;13.468;2022-11-15T08:00:08;8.90;99.90
8563;DHT22;16392;52.508;13.468;2022-11-15T08:02:36;9.00;99.90
8563;DHT22;16392;52.508;13.468;2022-11-15T08:05:03;9.10;99.90
8563;DHT22;16392;52.508;13.468;2022-11-15T08:07:30;9.10;99.90
8563;DHT22;16392;52.508;13.468;2022-11-15T08:09:57;9.30;99.90
8563;DHT22;16392;52.508;13.468;2022-11-15T08:12:26;9.40;99.90
8563;DHT22;16392;52.508;13.468;2022-11-15T08:14:54;9.40;99.90
8563;DHT22;16392;52.508;13.468;2022-11-15T08:17:21;9.70;99.90
8563;DHT22;16392;52.508;13.468;2022-11-15T08:19:49;9.80;99.90
8563;DHT22;16392;52.508;13.468;2022-11-15T08:22:16;9.70;99.90
8563;DHT22;16392;52.508;13.468;2022-11-15T08:24:43;9.70;99.90
8563;DHT22;16392;52.508;13.468;2022-11-15T08:27:10;10.00;99.90
8563;DHT22;16392;52.508;13.468;2022-11-15T08:29:43;10.10;99.90
8563;DHT22;16392;52.508;13.468;2022-11-15T08:32:11;10.30;99.90
8563;DHT22;16392;52.508;13.468;2022-11-15T08:34:38;10.50;99.90
8563;DHT22;16392;52.508;13.468;2022-11-15T08:37:06;10.80;99.90
8563;DHT22;16392;52.508;13.468;2022-11-15T08:39:33;10.80;99.90
8563;DHT22;16392;52.508;13.468;2022-11-15T08:42:00;11.10;99.90
8563;DHT22;16392;52.508;13.468;2022-11-15T08:44:26;11.30;99.90
8563;DHT22;16392;52.508;13.468;2022-11-15T08:46:53;11.40;99.90
8563;DHT22;16392;52.508;13.468;2022-11-15T08:49:19;11.50;15.20
8563;DHT22;16392;52.508;13.468;2022-11-15T08:51:46;11.40;99.90
8563;DHT22;16392;52.508;13.468;2022-11-15T08:54:15;11.50;69.10
8563;DHT22;16392;52.508;13.468;2022-11-15T08:56:41;11.70;96.50
8563;DHT22;16392;52.508;13.468;2022-11-15T08:59:08;11.80;63.20
8563;DHT22;16392;52.508;13.468;2022-11-15T09:01:37;11.80;31.00
8563;DHT22;16392;52.508;13.468;2022-11-15T09:04:04;11.50;55.70
8563;DHT22;16392;52.508;13.468;2022-11-15T09:06:32;11.40;99.90
8563;DHT22;16392;52.508;13.468;2022-11-15T09:09:00;11.70;99.90
8563;DHT22;16392;52.508;13.468;2022-11-15T09:11:28;12.20;1.00
8563;DHT22;16392;52.508;13.468;2022-11-15T09:13:55;12.40;1.00
8563;DHT22;16392;52.508;13.468;2022-11-15T09:16:22;12.60;16.90
8563;DHT22;16392;52.508;13.468;2022-11-15T09:18:49;12.60;1.00
8563;DHT22;16392;52.508;13.468;2022-11-15T09:21:15;12.70;1.00
8563;DHT22;16392;52.508;13.468;2022-11-15T09:23:42;12.70;1.00
8563;DHT22;16392;52.508;13.468;2022-11-15T09:26:08;12.90;1.00
8563;DHT22;16392;52.508;13.468;2022-11-15T09:28:37;13.00;1.00
8563;DHT22;16392;52.508;13.468;2022-11-15T09:31:07;13.00;1.00
8563;DHT22;16392;52.508;13.468;2022-11-15T09:33:34;13.00;1.00
8563;DHT22;16392;52.508;13.468;2022-11-15T09:36:01;13.60;1.00
8563;DHT22;16392;52.508;13.468;2022-11-15T09:38:28;13.60;1.00
8563;DHT22;16392;52.508;13.468;2022-11-15T09:41:08;13.20;1.00
8563;DHT22;16392;52.508;13.468;2022-11-15T09:43:43;13.30;1.00
8563;DHT22;16392;52.508;13.468;2022-11-15T09:46:16;13.40;1.00
8563;DHT22;16392;52.508;13.468;2022-11-15T09:48:50;13.30;1.00
8563;DHT22;16392;52.508;13.468;2022-11-15T09:51:25;13.60;1.00
8563;DHT22;16392;52.508;13.468;2022-11-15T09:53:59;13.90;1.00
8563;DHT22;16392;52.508;13.468;2022-11-15T09:56:29;13.80;1.00
8563;DHT22;16392;52.508;13.468;2022-11-15T09:59:12;13.80;1.00
8563;DHT22;16392;52.508;13.468;2022-11-15T10:01:46;13.40;1.00
8563;DHT22;16392;52.508;13.468;2022-11-15T10:04:16;13.50;1.00
8563;DHT22;16392;52.508;13.468;2022-11-15T10:06:49;13.50;1.00
8563;DHT22;16392;52.508;13.468;2022-11-15T10:09:21;13.60;1.00
8563;DHT22;16392;52.508;13.468;2022-11-15T10:11:49;13.90;1.00
8563;DHT22;16392;52.508;13.468;2022-11-15T10:14:20;13.70;1.00
8563;DHT22;16392;52.508;13.468;2022-11-15T10:17:06;13.80;1.00
8563;DHT22;16392;52.508;13.468;2022-11-15T10:19:38;13.90;1.00
8563;DHT22;16392;52.508;13.468;2022-11-15T10:22:19;14.10;1.00
8563;DHT22;16392;52.508;13.468;2022-11-15T10:24:48;13.90;1.00
8563;DHT22;16392;52.508;13.468;2022-11-15T10:27:19;13.50;1.00
8563;DHT22;16392;52.508;13.468;2022-11-15T10:29:49;13.60;1.00
8563;DHT22;16392;52.508;13.468;2022-11-15T10:32:18;13.60;1.00
8563;DHT22;16392;52.508;13.468;2022-11-15T10:34:48;13.80;1.00
8563;DHT22;16392;52.508;13.468;2022-11-15T10:37:27;14.10;1.00
8563;DHT22;16392;52.508;13.468;2022-11-15T10:40:03;14.50;1.00
8563;DHT22;16392;52.508;13.468;2022-11-15T10:42:30;14.80;99.90
8563;DHT22;16392;52.508;13.468;2022-11-15T10:45:26;14.30;99.90
8563;DHT22;16392;52.508;13.468;2022-11-15T10:48:24;14.40;99.90
8563;DHT22;16392;52.508;13.468;2022-11-15T10:50:53;14.30;99.90
8563;DHT22;16392;52.508;13.468;2022-11-15T10:53:41;14.60;99.90
8563;DHT22;16392;52.508;13.468;2022-11-15T10:56:24;15.00;99.90
8563;DHT22;16392;52.508;13.468;2022-11-15T10:58:57;15.10;1.00
8563;DHT22;16392;52.508;13.468;2022-11-15T11:01:28;14.80;99.90
8563;DHT22;16392;52.508;13.468;2022-11-15T11:03:59;15.00;1.00
8563;DHT22;16392;52.508;13.468;2022-11-15T11:06:28;15.10;1.00
8563;DHT22;16392;52.508;13.468;2022-11-15T11:08:57;15.00;1.00
8563;DHT22;16392;52.508;13.468;2022-11-15T11:11:24;14.90;1.00
8563;DHT22;16392;52.508;13.468;2022-11-15T11:13:52;14.90;1.00
8563;DHT22;16392;52.508;13.468;2022-11-15T11:16:33;15.00;1.00
8563;DHT22;16392;52.508;13.468;2022-11-15T11:19:08;15.20;1.00
8563;DHT22;16392;52.508;13.468;2022-11-15T11:21:46;15.20;1.00
8563;DHT22;16392;52.508;13.468;2022-11-15T11:24:22;14.90;1.00
8563;DHT22;16392;52.508;13.468;2022-11-15T11:27:06;15.20;1.00
8563;DHT22;16392;52.508;13.468;2022-11-15T11:29:44;15.50;87.50
8563;DHT22;16392;52.508;13.468;2022-11-15T11:32:29;15.50;99.90
8563;DHT22;16392;52.508;13.468;2022-11-15T11:35:04;15.70;1.00
8563;DHT22;16392;52.508;13.468;2022-11-15T11:37:39;15.40;26.60
8563;DHT22;16392;52.508;13.468;2022-11-15T11:40:20;14.80;1.00
8563;DHT22;16392;52.508;13.468;2022-11-15T11:42:55;14.70;1.00
8563;DHT22;16392;52.508;13.468;2022-11-15T11:51:51;15.20;1.00
8563;DHT22;16392;52.508;13.468;2022-11-15T11:54:32;15.30;1.00
8563;DHT22;16392;52.508;13.468;2022-11-15T11:57:04;15.30;99.90
8563;DHT22;16392;52.508;13.468;2022-11-15T11:59:37;15.20;1.00
8563;DHT22;16392;52.508;13.468;2022-11-15T12:02:14;15.10;1.00
8563;DHT22;16392;52.508;13.468;2022-11-15T12:04:44;14.90;1.00
8563;DHT22;16392;52.508;13.468;2022-11-15T12:07:19;14.90;1.00
8563;DHT22;16392;52.508;13.468;2022-11-15T12:09:52;15.10;1.00
8563;DHT22;16392;52.508;13.468;2022-11-15T12:12:25;15.10;1.00
8563;DHT22;16392;52.508;13.468;2022-11-15T12:14:57;14.90;1.00
8563;DHT22;16392;52.508;13.468;2022-11-15T12:17:28;14.90;1.00
8563;DHT22;16392;52.508;13.468;2022-11-15T12:20:00;14.80;1.00
8563;DHT22;16392;52.508;13.468;2022-11-15T12:22:36;14.70;99.90
8563;DHT22;16392;52.508;13.468;2022-11-15T12:25:07;14.40;99.90
8563;DHT22;16392;52.508;13.468;2022-11-15T12:27:38;14.40;99.90
8563;DHT22;16392;52.508;13.468;2022-11-15T12:30:11;14.10;1.00
8563;DHT22;16392;52.508;13.468;2022-11-15T12:32:39;14.10;1.00
8563;DHT22;16392;52.508;13.468;2022-11-15T12:35:24;14.00;1.00
8563;DHT22;16392;52.508;13.468;2022-11-15T12:37:54;13.90;1.00
8563;DHT22;16392;52.508;13.468;2022-11-15T12:40:38;14.00;1.00
8563;DHT22;16392;52.508;13.468;2022-11-15T12:46:04;14.20;1.00
8563;DHT22;16392;52.508;13.468;2022-11-15T12:48:56;14.30;1.00
8563;DHT22;16392;52.508;13.468;2022-11-15T12:54:59;14.10;1.00
8563;DHT22;16392;52.508;13.468;2022-11-15T12:57:42;14.00;1.00
8563;DHT22;16392;52.508;13.468;2022-11-15T13:00:43;14.00;1.00
8563;DHT22;16392;52.508;13.468;2022-11-15T13:03:29;14.00;1.00
8563;DHT22;16392;52.508;13.468;2022-11-15T13:06:04;14.00;1.00
8563;DHT22;16392;52.508;13.468;2022-11-15T13:08:44;14.00;1.00
8563;DHT22;16392;52.508;13.468;2022-11-15T13:11:49;14.00;1.00
8563;DHT22;16392;52.508;13.468;2022-11-15T13:14:42;14.00;1.00
8563;DHT22;16392;52.508;13.468;2022-11-15T13:17:25;14.10;1.00
8563;DHT22;16392;52.508;13.468;2022-11-15T13:19:58;14.20;1.00
8563;DHT22;16392;52.508;13.468;2022-11-15T13:22:25;14.20;1.00
8563;DHT22;16392;52.508;13.468;2022-11-15T13:25:15;14.20;1.00
8563;DHT22;16392;52.508;13.468;2022-11-15T13:27:47;14.20;1.00
8563;DHT22;16392;52.508;13.468;2022-11-15T13:30:19;14.20;1.00
8563;DHT22;16392;52.508;13.468;2022-11-15T13:32:47;14.10;1.00
8563;DHT22;16392;52.508;13.468;2022-11-15T13:35:21;13.90;1.00
8563;DHT22;16392;52.508;13.468;2022-11-15T13:37:48;13.80;1.00
8563;DHT22;16392;52.508;13.468;2022-11-15T13:40:25;13.80;1.00
8563;DHT22;16392;52.508;13.468;2022-11-15T13:42:57;13.70;1.00
8563;DHT22;16392;52.508;13.468;2022-11-15T13:45:25;13.70;1.00
8563;DHT22;16392;52.508;13.468;2022-11-15T13:47:54;13.70;1.00
8563;DHT22;16392;52.508;13.468;2022-11-15T13:50:29;13.60;1.00
8563;DHT22;16392;52.508;13.468;2022-11-15T13:52:59;13.50;1.00
8563;DHT22;16392;52.508;13.468;2022-11-15T13:55:26;13.40;1.00
8563;DHT22;16392;52.508;13.468;2022-11-15T13:57:56;13.30;1.00
8563;DHT22;16392;52.508;13.468;2022-11-15T14:00:30;13.20;1.00
8563;DHT22;16392;52.508;13.468;2022-11-15T14:03:06;13.20;1.00
8563;DHT22;16392;52.508;13.468;2022-11-15T14:05:33;13.10;1.00
8563;DHT22;16392;52.508;13.468;2022-11-15T14:08:03;13.00;1.00
8563;DHT22;16392;52.508;13.468;2022-11-15T14:10:32;12.90;1.00
8563;DHT22;16392;52.508;13.468;2022-11-15T14:13:01;12.90;1.00
8563;DHT22;16392;52.508;13.468;2022-11-15T14:15:32;12.80;1.00
8563;DHT22;16392;52.508;13.468;2022-11-15T14:18:00;12.80;1.00
8563;DHT22;16392;52.508;13.468;2022-11-15T14:20:29;12.70;29.00
8563;DHT22;16392;52.508;13.468;2022-11-15T14:22:59;12.70;50.70
8563;DHT22;16392;52.508;13.468;2022-11-15T14:25:27;12.60;85.90
8563;DHT22;16392;52.508;13.468;2022-11-15T14:28:29;12.60;99.90
8563;DHT22;16392;52.508;13.468;2022-11-15T14:31:10;12.60;99.90
8563;DHT22;16392;52.508;13.468;2022-11-15T14:33:38;12.60;99.90
8563;DHT22;16392;52.508;13.468;2022-11-15T14:36:11;12.50;99.90
8563;DHT22;16392;52.508;13.468;2022-11-15T14:38:39;12.50;99.90
8563;DHT22;16392;52.508;13.468;2022-11-15T14:41:16;12.50;99.90
8563;DHT22;16392;52.508;13.468;2022-11-15T14:43:57;12.50;99.90
8563;DHT22;16392;52.508;13.468;2022-11-15T14:46:30;12.40;99.90
8563;DHT22;16392;52.508;13.468;2022-11-15T14:48:57;12.40;99.90
8563;DHT22;16392;52.508;13.468;2022-11-15T14:51:24;12.30;99.90
8563;DHT22;16392;52.508;13.468;2022-11-15T14:53:51;12.20;99.90
8563;DHT22;16392;52.508;13.468;2022-11-15T14:56:19;12.10;99.90
